Time;durP1;ratioP1;P1;durP2;ratioP2;P2;SDS_P1;SDS_P2;PMS_P1;PMS_P2;Temp;Humidity;BMP_temperature;BMP_pressure;BME280_temperature;BME280_humidity;BME280_pressure;Samples;Min_cycle;Max_cycle;Signal;HPM_P1;HPM_P2
2023/03/13 00:02:19;;;;;;;;;;;;;;;;;;5118254;28;19951;-75
2023/03/13 00:04:45;;;;;;;;;;;;;;;;;;5118154;28;19997;-75
2023/03/13 00:07:12;;;;;;;;;;;;;;;;;;5118135;28;19950;-77
2023/03/13 00:09:38;;;;;;;;;;;;;;;;;;5118666;28;20383;-77
2023/03/13 00:12:04;;;;;;;;;;;;;;;;;;5118044;28;19993;-75
2023/03/13 00:14:30;;;;;;;;;;;;;;;;;;5118185;28;20343;-77
2023/03/13 00:16:56;;;;;;;;;;;;;;;;;;5117851;28;19982;-75
2023/03/13 00:19:22;;;;;;;;;;;;;;;;;;5118492;28;20357;-77
2023/03/13 00:21:48;;;;;;;;;;;;;;;;;;5117801;28;19952;-74
2023/03/13 00:24:14;;;;;;;;;;;;;;;;;;5117801;28;19953;-75
2023/03/13 00:26:39;;;;;;;;;;;;;;;;;;5117772;28;19955;-75
2023/03/13 00:29:05;;;;;;;;;;;;;;;;;;5117690;28;19953;-76
2023/03/13 00:31:31;;;;;;;;;;;;;;;;;;5117618;28;19994;-77
2023/03/13 00:33:57;;;;;;;;;;;;;;;;;;5117911;28;19958;-76
2023/03/13 00:36:23;;;;;;;;;;;;;;;;;;5117506;28;20437;-75
2023/03/13 00:38:49;;;;;;;;;;;;;;;;;;5117526;28;19958;-75
2023/03/13 00:41:15;;;;;;;;;;;;;;;;;;5117302;28;19989;-74
2023/03/13 00:43:41;;;;;;;;;;;;;;;;;;5117440;28;19961;-77
2023/03/13 00:46:07;;;;;;;;;;;;;;;;;;5117638;28;19956;-76
2023/03/13 00:48:32;;;;;;;;;;;;;;;;;;5099019;28;20006;-75
2023/03/13 00:50:58;;;;;;;;;;;;;;;;;;5117334;28;20048;-75
2023/03/13 00:53:24;;;;;;;;;;;;;;;;;;5117789;28;19953;-76
2023/03/13 00:55:51;;;;;;;;;;;;;;;;;;5117407;28;19972;-75
2023/03/13 00:58:16;;;;;;;;;;;;;;;;;;5117116;28;20097;-75
2023/03/13 01:00:42;;;;;;;;;;;;;;;;;;5117397;28;19993;-75
2023/03/13 01:03:08;;;;;;;;;;;;;;;;;;5116130;28;20415;-75
2023/03/13 01:05:34;;;;;;;;;;;;;;;;;;5117294;28;19952;-75
2023/03/13 01:08:00;;;;;;;;;;;;;;;;;;5116982;28;19999;-76
2023/03/13 01:10:26;;;;;;;;;;;;;;;;;;5117216;28;19954;-78
2023/03/13 01:12:52;;;;;;;;;;;;;;;;;;5117164;28;19955;-75
2023/03/13 01:15:18;;;;;;;;;;;;;;;;;;5116688;28;19972;-75
2023/03/13 01:17:44;;;;;;;;;;;;;;;;;;5098452;28;20375;-76
2023/03/13 01:20:10;;;;;;;;;;;;;;;;;;5116698;28;19954;-76
2023/03/13 01:22:36;;;;;;;;;;;;;;;;;;5116957;28;19951;-75
2023/03/13 01:25:02;;;;;;;;;;;;;;;;;;5116581;28;20005;-75
2023/03/13 01:27:28;;;;;;;;;;;;;;;;;;5117150;28;19959;-76
2023/03/13 01:29:55;;;;;;;;;;;;;;;;;;5116519;28;19948;-75
2023/03/13 01:32:21;;;;;;;;;;;;;;;;;;5097914;28;20047;-77
2023/03/13 01:34:46;;;;;;;;;;;;;;;;;;5116389;28;20045;-76
2023/03/13 01:37:12;;;;;;;;;;;;;;;;;;5116959;28;20377;-75
2023/03/13 01:39:38;;;;;;;;;;;;;;;;;;5098155;28;19954;-75
2023/03/13 01:42:04;;;;;;;;;;;;;;;;;;5116922;28;20426;-75
2023/03/13 01:44:30;;;;;;;;;;;;;;;;;;5116269;28;20002;-75
2023/03/13 01:46:56;;;;;;;;;;;;;;;;;;5116186;28;20469;-74
2023/03/13 01:49:22;;;;;;;;;;;;;;;;;;5116143;28;19950;-76
2023/03/13 01:51:47;;;;;;;;;;;;;;;;;;5116381;28;20014;-76
2023/03/13 01:54:13;;;;;;;;;;;;;;;;;;5116057;28;19949;-77
2023/03/13 01:56:39;;;;;;;;;;;;;;;;;;5115928;28;19972;-76
2023/03/13 01:59:05;;;;;;;;;;;;;;;;;;5115966;28;19998;-76
2023/03/13 02:01:32;;;;;;;;;;;;;;;;;;5097662;28;19956;-75
2023/03/13 02:03:58;;;;;;;;;;;;;;;;;;5116478;28;19950;-76
2023/03/13 02:06:24;;;;;;;;;;;;;;;;;;5116076;28;20031;-74
2023/03/13 02:08:50;;;;;;;;;;;;;;;;;;5116071;28;20410;-75
2023/03/13 02:11:16;;;;;;;;;;;;;;;;;;5115875;28;19962;-75
2023/03/13 02:13:42;;;;;;;;;;;;;;;;;;5115975;28;19952;-75
2023/03/13 02:16:08;;;;;;;;;;;;;;;;;;5116379;28;20441;-75
2023/03/13 02:18:34;;;;;;;;;;;;;;;;;;5115599;28;19954;-76
2023/03/13 02:21:00;;;;;;;;;;;;;;;;;;5115521;28;20476;-75
2023/03/13 02:23:25;;;;;;;;;;;;;;;;;;5115505;28;19950;-76
2023/03/13 02:25:52;;;;;;;;;;;;;;;;;;5115750;28;19950;-76
2023/03/13 02:28:18;;;;;;;;;;;;;;;;;;5115387;28;19949;-75
2023/03/13 02:30:44;;;;;;;;;;;;;;;;;;5115349;28;20005;-76
2023/03/13 02:33:10;;;;;;;;;;;;;;;;;;5115298;28;20017;-76
2023/03/13 02:35:36;;;;;;;;;;;;;;;;;;5115496;28;19973;-76
2023/03/13 02:38:02;;;;;;;;;;;;;;;;;;5115204;28;20327;-76
2023/03/13 02:40:28;;;;;;;;;;;;;;;;;;5114962;28;19988;-75
2023/03/13 02:42:53;;;;;;;;;;;;;;;;;;5115107;28;19949;-75
2023/03/13 02:45:19;;;;;;;;;;;;;;;;;;5115033;28;19950;-75
2023/03/13 02:47:45;;;;;;;;;;;;;;;;;;5096800;28;19961;-77
2023/03/13 02:50:11;;;;;;;;;;;;;;;;;;5114972;28;20414;-77
2023/03/13 02:52:37;;;;;;;;;;;;;;;;;;5114914;28;19954;-76
2023/03/13 02:55:03;;;;;;;;;;;;;;;;;;5115388;28;19970;-75
2023/03/13 02:57:30;;;;;;;;;;;;;;;;;;5114766;28;19950;-76
2023/03/13 02:59:57;;;;;;;;;;;;;;;;;;5114839;28;20121;-76
2023/03/13 03:02:23;;;;;;;;;;;;;;;;;;5096223;28;19956;-77
2023/03/13 03:04:49;;;;;;;;;;;;;;;;;;5115289;28;20042;-75
2023/03/13 03:07:15;;;;;;;;;;;;;;;;;;5114625;28;20001;-75
2023/03/13 03:09:41;;;;;;;;;;;;;;;;;;5114925;28;20088;-74
2023/03/13 03:12:07;;;;;;;;;;;;;;;;;;5096138;28;20104;-75
2023/03/13 03:14:33;;;;;;;;;;;;;;;;;;5114473;28;20066;-75
2023/03/13 03:16:59;;;;;;;;;;;;;;;;;;5114422;28;19976;-75
2023/03/13 03:19:25;;;;;;;;;;;;;;;;;;5114757;28;19972;-75
2023/03/13 03:21:50;;;;;;;;;;;;;;;;;;5114718;28;19949;-75
2023/03/13 03:24:16;;;;;;;;;;;;;;;;;;5114131;28;19954;-75
2023/03/13 03:26:42;;;;;;;;;;;;;;;;;;5114277;28;19995;-76
2023/03/13 03:29:09;;;;;;;;;;;;;;;;;;5114353;28;20045;-76
2023/03/13 03:31:35;;;;;;;;;;;;;;;;;;5114604;28;20385;-76
2023/03/13 03:34:01;;;;;;;;;;;;;;;;;;5114545;28;19957;-76
2023/03/13 03:36:27;;;;;;;;;;;;;;;;;;5114206;28;20069;-75
2023/03/13 03:38:53;;;;;;;;;;;;;;;;;;5114811;28;20387;-75
2023/03/13 03:41:19;;;;;;;;;;;;;;;;;;5114015;28;20033;-74
2023/03/13 03:43:46;;;;;;;;;;;;;;;;;;5114756;28;20312;-75
2023/03/13 03:46:12;;;;;;;;;;;;;;;;;;5114176;28;19951;-75
2023/03/13 03:48:38;;;;;;;;;;;;;;;;;;5114156;28;19986;-75
2023/03/13 03:51:03;;;;;;;;;;;;;;;;;;5114406;28;19944;-76
2023/03/13 03:53:31;;;;;;;;;;;;;;;;;;5114053;28;20037;-75
2023/03/13 03:55:57;;;;;;;;;;;;;;;;;;5114529;28;19974;-75
2023/03/13 03:58:22;;;;;;;;;;;;;;;;;;5114030;28;19952;-77
2023/03/13 04:00:48;;;;;;;;;;;;;;;;;;5095994;28;20412;-75
2023/03/13 04:03:15;;;;;;;;;;;;;;;;;;5114261;28;19957;-75
2023/03/13 04:05:41;;;;;;;;;;;;;;;;;;5113969;28;19976;-76
2023/03/13 04:08:07;;;;;;;;;;;;;;;;;;5113941;28;19963;-75
2023/03/13 04:10:33;;;;;;;;;;;;;;;;;;5095909;28;20440;-75
2023/03/13 04:12:59;;;;;;;;;;;;;;;;;;5114425;28;19989;-76
2023/03/13 04:15:25;;;;;;;;;;;;;;;;;;5095463;28;20074;-76
2023/03/13 04:17:50;;;;;;;;;;;;;;;;;;5114428;28;19950;-76
2023/03/13 04:20:16;;;;;;;;;;;;;;;;;;5113844;28;20077;-76
2023/03/13 04:22:42;;;;;;;;;;;;;;;;;;5114025;28;20314;-76
2023/03/13 04:25:08;;;;;;;;;;;;;;;;;;5113795;28;19952;-76
2023/03/13 04:27:34;;;;;;;;;;;;;;;;;;5113825;28;19947;-76
2023/03/13 04:30:00;;;;;;;;;;;;;;;;;;5113772;28;19951;-74
2023/03/13 04:32:26;;;;;;;;;;;;;;;;;;5114267;28;20391;-75
2023/03/13 04:34:52;;;;;;;;;;;;;;;;;;5113905;28;19946;-76
2023/03/13 04:37:18;;;;;;;;;;;;;;;;;;5115134;28;20323;-77
2023/03/13 04:39:43;;;;;;;;;;;;;;;;;;5117345;28;19966;-76
2023/03/13 04:42:09;;;;;;;;;;;;;;;;;;5118061;28;19953;-75
2023/03/13 04:44:35;;;;;;;;;;;;;;;;;;5117706;28;19953;-77
2023/03/13 04:47:01;;;;;;;;;;;;;;;;;;5117705;28;19956;-76
2023/03/13 04:49:27;;;;;;;;;;;;;;;;;;5117352;28;19953;-75
2023/03/13 04:51:53;;;;;;;;;;;;;;;;;;5117610;28;19986;-76
2023/03/13 04:54:19;;;;;;;;;;;;;;;;;;5117261;28;19971;-75
2023/03/13 04:56:45;;;;;;;;;;;;;;;;;;5117386;28;19970;-75
2023/03/13 04:59:11;;;;;;;;;;;;;;;;;;5117444;28;19952;-76
2023/03/13 05:01:37;;;;;;;;;;;;;;;;;;5117137;28;20469;-75
2023/03/13 05:04:03;;;;;;;;;;;;;;;;;;5117645;28;19997;-75
2023/03/13 05:06:28;;;;;;;;;;;;;;;;;;5117311;28;19953;-77
2023/03/13 05:08:54;;;;;;;;;;;;;;;;;;5116993;28;19949;-76
2023/03/13 05:11:20;;;;;;;;;;;;;;;;;;5116933;28;19959;-76
2023/03/13 05:13:46;;;;;;;;;;;;;;;;;;5117037;28;19971;-75
2023/03/13 05:16:12;;;;;;;;;;;;;;;;;;5117053;28;19977;-75
2023/03/13 05:18:38;;;;;;;;;;;;;;;;;;5098498;28;20007;-76
2023/03/13 05:21:04;;;;;;;;;;;;;;;;;;5116777;28;19949;-75
2023/03/13 05:23:30;;;;;;;;;;;;;;;;;;5117215;28;20422;-77
2023/03/13 05:25:55;;;;;;;;;;;;;;;;;;5116936;28;19960;-75
2023/03/13 05:28:21;;;;;;;;;;;;;;;;;;5116605;28;20493;-77
2023/03/13 05:30:47;;;;;;;;;;;;;;;;;;5116852;28;19958;-75
2023/03/13 05:33:13;;;;;;;;;;;;;;;;;;5116472;28;19953;-77
2023/03/13 05:35:39;;;;;;;;;;;;;;;;;;5116345;28;19971;-76
2023/03/13 05:38:05;;;;;;;;;;;;;;;;;;5116985;28;19960;-75
2023/03/13 05:40:31;;;;;;;;;;;;;;;;;;5097858;28;19993;-76
2023/03/13 05:42:58;;;;;;;;;;;;;;;;;;5116935;28;19956;-75
2023/03/13 05:45:24;;;;;;;;;;;;;;;;;;5116262;28;20478;-75
2023/03/13 05:47:50;;;;;;;;;;;;;;;;;;5115914;28;19952;-76
2023/03/13 05:50:16;;;;;;;;;;;;;;;;;;5116167;28;19949;-76
2023/03/13 05:52:42;;;;;;;;;;;;;;;;;;5116151;28;19954;-76
2023/03/13 05:55:08;;;;;;;;;;;;;;;;;;5116538;28;20431;-76
2023/03/13 05:57:33;;;;;;;;;;;;;;;;;;5116304;28;19959;-76
2023/03/13 05:59:59;;;;;;;;;;;;;;;;;;5116047;28;20160;-75
2023/03/13 06:02:25;;;;;;;;;;;;;;;;;;5115992;28;19954;-75
2023/03/13 06:04:51;;;;;;;;;;;;;;;;;;5115900;28;19974;-77
2023/03/13 06:07:17;;;;;;;;;;;;;;;;;;5115849;28;19954;-75
2023/03/13 06:09:43;;;;;;;;;;;;;;;;;;5116059;28;20010;-75
2023/03/13 06:12:09;;;;;;;;;;;;;;;;;;5115754;28;20407;-75
2023/03/13 06:14:35;;;;;;;;;;;;;;;;;;5115898;28;19972;-77
2023/03/13 06:17:01;;;;;;;;;;;;;;;;;;5115879;28;20023;-75
2023/03/13 06:19:27;;;;;;;;;;;;;;;;;;5115608;28;20299;-76
2023/03/13 06:21:52;;;;;;;;;;;;;;;;;;5115560;28;19959;-76
2023/03/13 06:24:18;;;;;;;;;;;;;;;;;;5115766;28;20014;-75
2023/03/13 06:26:44;;;;;;;;;;;;;;;;;;5115729;28;19963;-76
2023/03/13 06:29:10;;;;;;;;;;;;;;;;;;5115392;28;19953;-75
2023/03/13 06:31:36;;;;;;;;;;;;;;;;;;5115317;28;20420;-75
2023/03/13 06:34:02;;;;;;;;;;;;;;;;;;5115324;28;19954;-75
2023/03/13 06:36:28;;;;;;;;;;;;;;;;;;5115441;28;20032;-75
2023/03/13 06:38:54;;;;;;;;;;;;;;;;;;5115449;28;19949;-76
2023/03/13 06:41:19;;;;;;;;;;;;;;;;;;5114790;28;20027;-75
2023/03/13 06:43:45;;;;;;;;;;;;;;;;;;5115595;28;19958;-76
2023/03/13 06:46:11;;;;;;;;;;;;;;;;;;5115062;28;20036;-75
2023/03/13 06:48:37;;;;;;;;;;;;;;;;;;5115316;28;20018;-75
2023/03/13 06:51:03;;;;;;;;;;;;;;;;;;5115028;28;20372;-76
2023/03/13 06:53:29;;;;;;;;;;;;;;;;;;5114868;28;19958;-75
2023/03/13 06:55:55;;;;;;;;;;;;;;;;;;5114768;28;19994;-76
2023/03/13 06:58:21;;;;;;;;;;;;;;;;;;5114826;28;19959;-76
2023/03/13 07:00:47;;;;;;;;;;;;;;;;;;5114317;28;19963;-75
2023/03/13 07:03:13;;;;;;;;;;;;;;;;;;5114603;28;20445;-74
2023/03/13 07:05:39;;;;;;;;;;;;;;;;;;5114909;28;19958;-75
2023/03/13 07:08:04;;;;;;;;;;;;;;;;;;5114623;28;19991;-75
2023/03/13 07:10:30;;;;;;;;;;;;;;;;;;5115222;28;20056;-75
2023/03/13 07:12:56;;;;;;;;;;;;;;;;;;5114637;28;19986;-76
2023/03/13 07:15:22;;;;;;;;;;;;;;;;;;5096120;28;20002;-75
2023/03/13 07:17:48;;;;;;;;;;;;;;;;;;5115047;28;19953;-76
2023/03/13 07:20:14;;;;;;;;;;;;;;;;;;5114750;28;19960;-75
2023/03/13 07:22:40;;;;;;;;;;;;;;;;;;5114553;28;20002;-74
2023/03/13 07:25:06;;;;;;;;;;;;;;;;;;5114904;28;19951;-76
2023/03/13 07:27:32;;;;;;;;;;;;;;;;;;5115554;28;19949;-75
2023/03/13 07:29:58;;;;;;;;;;;;;;;;;;5114579;28;19952;-75
2023/03/13 07:32:24;;;;;;;;;;;;;;;;;;5114939;28;19952;-76
2023/03/13 07:34:49;;;;;;;;;;;;;;;;;;5114290;28;19958;-75
2023/03/13 07:37:15;;;;;;;;;;;;;;;;;;5114777;28;20026;-76
2023/03/13 07:39:41;;;;;;;;;;;;;;;;;;5114031;28;19957;-74
2023/03/13 07:42:07;;;;;;;;;;;;;;;;;;5114833;28;20333;-76
2023/03/13 07:44:33;;;;;;;;;;;;;;;;;;5114481;28;19952;-76
2023/03/13 07:46:59;;;;;;;;;;;;;;;;;;5114151;28;20336;-77
2023/03/13 07:49:26;;;;;;;;;;;;;;;;;;5114161;28;19950;-77
2023/03/13 07:51:52;;;;;;;;;;;;;;;;;;5093088;28;20018;-72
2023/03/13 07:54:18;;;;;;;;;;;;;;;;;;5112544;28;20346;-70
2023/03/13 07:56:44;;;;;;;;;;;;;;;;;;5114563;28;20454;-70
2023/03/13 07:59:10;;;;;;;;;;;;;;;;;;5114018;28;19956;-69
2023/03/13 08:01:36;;;;;;;;;;;;;;;;;;5112838;28;19957;-69
2023/03/13 08:04:02;;;;;;;;;;;;;;;;;;5113859;28;20086;-71
2023/03/13 08:06:29;;;;;;;;;;;;;;;;;;5112409;28;20425;-69
2023/03/13 08:08:55;;;;;;;;;;;;;;;;;;5112171;28;19962;-69
2023/03/13 08:11:21;;;;;;;;;;;;;;;;;;5115165;28;20335;-67
2023/03/13 08:13:48;;;;;;;;;;;;;;;;;;5115474;28;20002;-69
2023/03/13 08:16:14;;;;;;;;;;;;;;;;;;5115615;28;19974;-69
2023/03/13 08:18:40;;;;;;;;;;;;;;;;;;5116613;28;19964;-69
2023/03/13 08:21:06;;;;;;;;;;;;;;;;;;5116084;28;20339;-70
2023/03/13 08:23:32;;;;;;;;;;;;;;;;;;5117282;28;19988;-72
2023/03/13 08:25:58;;;;;;;;;;;;;;;;;;5117241;28;19955;-70
2023/03/13 08:28:23;;;;;;;;;;;;;;;;;;5115918;28;19957;-70
2023/03/13 08:30:49;;;;;;;;;;;;;;;;;;5118347;28;20406;-70
2023/03/13 08:33:15;;;;;;;;;;;;;;;;;;5117692;28;20030;-70
2023/03/13 08:35:41;;;;;;;;;;;;;;;;;;5117089;28;20346;-70
2023/03/13 08:38:07;;;;;;;;;;;;;;;;;;5116786;28;19963;-71
2023/03/13 08:40:33;;;;;;;;;;;;;;;;;;5117360;28;20403;-70
2023/03/13 08:42:59;;;;;;;;;;;;;;;;;;5115662;28;19961;-70
2023/03/13 08:45:25;;;;;;;;;;;;;;;;;;5115789;28;19959;-71
2023/03/13 08:47:51;;;;;;;;;;;;;;;;;;5110893;28;19956;-70
2023/03/13 08:50:18;;;;;;;;;;;;;;;;;;5113925;28;20198;-72
2023/03/13 08:52:44;;;;;;;;;;;;;;;;;;5116397;28;19972;-71
2023/03/13 08:55:10;;;;;;;;;;;;;;;;;;5116600;28;19991;-69
2023/03/13 08:57:36;;;;;;;;;;;;;;;;;;5115518;28;19958;-70
2023/03/13 09:00:03;;;;;;;;;;;;;;;;;;5113003;28;19959;-72
2023/03/13 09:02:29;;;;;;;;;;;;;;;;;;5115394;28;19956;-69
2023/03/13 09:04:55;;;;;;;;;;;;;;;;;;5117896;28;20293;-70
2023/03/13 09:07:21;;;;;;;;;;;;;;;;;;5114272;28;19958;-69
2023/03/13 09:09:47;;;;;;;;;;;;;;;;;;5094254;28;19972;-71
2023/03/13 09:12:13;;;;;;;;;;;;;;;;;;5113440;28;19960;-70
2023/03/13 09:14:39;;;;;;;;;;;;;;;;;;5116812;28;20045;-72
2023/03/13 09:17:04;;;;;;;;;;;;;;;;;;5117030;28;19971;-69
2023/03/13 09:19:30;;;;;;;;;;;;;;;;;;5116822;28;19991;-67
2023/03/13 09:21:56;;;;;;;;;;;;;;;;;;5116974;28;19964;-69
2023/03/13 09:24:22;;;;;;;;;;;;;;;;;;5116385;28;19959;-70
2023/03/13 09:26:48;;;;;;;;;;;;;;;;;;5117257;28;20003;-71
2023/03/13 09:29:14;;;;;;;;;;;;;;;;;;5116724;28;19960;-71
2023/03/13 09:31:40;;;;;;;;;;;;;;;;;;5114751;28;19959;-68
2023/03/13 09:34:06;;;;;;;;;;;;;;;;;;5116595;28;20381;-69
2023/03/13 09:36:32;;;;;;;;;;;;;;;;;;5116960;28;20012;-70
2023/03/13 09:38:58;;;;;;;;;;;;;;;;;;5097442;28;19958;-71
2023/03/13 09:41:24;;;;;;;;;;;;;;;;;;5116243;28;20021;-71
2023/03/13 09:43:50;;;;;;;;;;;;;;;;;;5115646;28;20343;-70
2023/03/13 09:46:16;;;;;;;;;;;;;;;;;;5116885;28;20429;-72
2023/03/13 09:48:41;;;;;;;;;;;;;;;;;;5116333;28;19954;-71
2023/03/13 09:51:07;;;;;;;;;;;;;;;;;;5116604;28;19963;-70
2023/03/13 09:53:33;;;;;;;;;;;;;;;;;;5116486;28;20447;-69
2023/03/13 09:55:59;;;;;;;;;;;;;;;;;;5114781;28;20066;-71
2023/03/13 09:58:25;;;;;;;;;;;;;;;;;;5114980;28;20419;-71
2023/03/13 10:00:51;;;;;;;;;;;;;;;;;;5111706;28;19965;-72
2023/03/13 10:03:17;;;;;;;;;;;;;;;;;;5115380;28;19997;-73
2023/03/13 10:05:43;;;;;;;;;;;;;;;;;;5115586;28;20420;-72
2023/03/13 10:08:09;;;;;;;;;;;;;;;;;;5115864;28;19949;-73
2023/03/13 10:10:35;;;;;;;;;;;;;;;;;;5116389;28;20395;-73
2023/03/13 10:13:00;;;;;;;;;;;;;;;;;;5116150;28;20116;-74
2023/03/13 10:15:26;;;;;;;;;;;;;;;;;;5114790;28;20390;-73
2023/03/13 10:17:52;;;;;;;;;;;;;;;;;;5114630;28;19961;-75
2023/03/13 10:20:18;;;;;;;;;;;;;;;;;;5115622;28;19958;-74
2023/03/13 10:22:44;;;;;;;;;;;;;;;;;;5115156;28;20444;-71
2023/03/13 10:25:10;;;;;;;;;;;;;;;;;;5115854;28;19954;-73
2023/03/13 10:27:36;;;;;;;;;;;;;;;;;;5115488;28;20416;-72
2023/03/13 10:30:02;;;;;;;;;;;;;;;;;;5114445;28;19957;-70
2023/03/13 10:32:28;;;;;;;;;;;;;;;;;;5096079;28;19974;-70
2023/03/13 10:34:54;;;;;;;;;;;;;;;;;;5114577;28;19953;-74
2023/03/13 10:37:20;;;;;;;;;;;;;;;;;;5115234;28;19982;-73
2023/03/13 10:39:45;;;;;;;;;;;;;;;;;;5113839;28;19964;-76
2023/03/13 10:42:11;;;;;;;;;;;;;;;;;;5115265;28;19952;-75
2023/03/13 10:44:37;;;;;;;;;;;;;;;;;;5076727;28;20011;-71
2023/03/13 10:47:03;;;;;;;;;;;;;;;;;;5109934;28;20412;-73
2023/03/13 10:49:29;;;;;;;;;;;;;;;;;;5114078;28;20431;-72
2023/03/13 10:51:55;;;;;;;;;;;;;;;;;;5110334;28;19960;-73
2023/03/13 10:54:21;;;;;;;;;;;;;;;;;;5112623;28;19961;-74
2023/03/13 10:56:47;;;;;;;;;;;;;;;;;;5113046;28;20705;-73
2023/03/13 10:59:13;;;;;;;;;;;;;;;;;;5113743;28;20341;-71
2023/03/13 11:01:39;;;;;;;;;;;;;;;;;;5114831;28;19958;-69
2023/03/13 11:04:05;;;;;;;;;;;;;;;;;;5115266;28;19955;-69
2023/03/13 11:06:31;;;;;;;;;;;;;;;;;;5114718;28;19995;-69
2023/03/13 11:08:57;;;;;;;;;;;;;;;;;;5113593;28;20566;-74
2023/03/13 11:11:26;;;;;;;;;;;;;;;;;;5115228;28;20388;-71
2023/03/13 11:13:52;;;;;;;;;;;;;;;;;;5114856;28;19965;-72
2023/03/13 11:16:18;;;;;;;;;;;;;;;;;;5113285;28;20424;-73
2023/03/13 11:18:44;;;;;;;;;;;;;;;;;;5115026;28;19953;-74
2023/03/13 11:21:13;;;;;;;;;;;;;;;;;;5096288;28;19961;-72
2023/03/13 11:23:39;;;;;;;;;;;;;;;;;;5094153;28;20722;-71
2023/03/13 11:26:04;;;;;;;;;;;;;;;;;;5114103;28;19993;-71
2023/03/13 11:28:30;;;;;;;;;;;;;;;;;;5112713;28;20004;-74
2023/03/13 11:30:56;;;;;;;;;;;;;;;;;;5114140;28;19949;-72
2023/03/13 11:33:22;;;;;;;;;;;;;;;;;;5114307;28;19950;-74
2023/03/13 11:35:48;;;;;;;;;;;;;;;;;;5115070;28;19975;-75
2023/03/13 11:38:14;;;;;;;;;;;;;;;;;;5114249;28;20000;-73
2023/03/13 11:40:40;;;;;;;;;;;;;;;;;;5114353;28;20442;-74
2023/03/13 11:43:06;;;;;;;;;;;;;;;;;;5114540;28;19953;-74
2023/03/13 11:45:32;;;;;;;;;;;;;;;;;;5095525;28;20043;-75
2023/03/13 11:47:58;;;;;;;;;;;;;;;;;;5114494;28;20000;-75
2023/03/13 11:50:24;;;;;;;;;;;;;;;;;;5114150;28;19977;-73
2023/03/13 11:52:49;;;;;;;;;;;;;;;;;;5114170;28;19993;-74
2023/03/13 11:55:15;;;;;;;;;;;;;;;;;;5114296;28;19951;-75
2023/03/13 11:57:41;;;;;;;;;;;;;;;;;;5114356;28;20359;-72
2023/03/13 12:00:09;;;;;;;;;;;;;;;;;;5114060;28;19955;-75
2023/03/13 12:02:34;;;;;;;;;;;;;;;;;;5114036;28;20000;-72
2023/03/13 12:05:00;;;;;;;;;;;;;;;;;;5114274;28;19951;-75
2023/03/13 12:07:27;;;;;;;;;;;;;;;;;;5113969;28;19955;-74
2023/03/13 12:09:54;;;;;;;;;;;;;;;;;;5113997;28;19988;-74
2023/03/13 12:12:20;;;;;;;;;;;;;;;;;;5095707;28;20441;-74
2023/03/13 12:14:45;;;;;;;;;;;;;;;;;;5114028;28;19966;-74
2023/03/13 12:17:11;;;;;;;;;;;;;;;;;;5113828;28;19976;-73
2023/03/13 12:19:37;;;;;;;;;;;;;;;;;;5114050;28;19956;-74
2023/03/13 12:22:03;;;;;;;;;;;;;;;;;;5114242;28;19956;-74
2023/03/13 12:24:29;;;;;;;;;;;;;;;;;;5113802;28;19959;-75
2023/03/13 12:26:55;;;;;;;;;;;;;;;;;;5114127;28;19947;-73
2023/03/13 12:29:21;;;;;;;;;;;;;;;;;;5113759;28;20000;-75
2023/03/13 12:31:47;;;;;;;;;;;;;;;;;;5113741;28;19963;-72
2023/03/13 12:34:13;;;;;;;;;;;;;;;;;;5114016;28;19950;-73
2023/03/13 12:36:39;;;;;;;;;;;;;;;;;;5113604;28;20397;-75
2023/03/13 12:39:04;;;;;;;;;;;;;;;;;;5113967;28;19959;-74
2023/03/13 12:41:30;;;;;;;;;;;;;;;;;;5113417;28;19982;-73
2023/03/13 12:43:56;;;;;;;;;;;;;;;;;;5113659;28;19952;-74
2023/03/13 12:46:22;;;;;;;;;;;;;;;;;;5113939;28;19957;-74
2023/03/13 12:48:48;;;;;;;;;;;;;;;;;;5113575;28;19946;-74
2023/03/13 12:51:14;;;;;;;;;;;;;;;;;;5113822;28;19951;-73
2023/03/13 12:53:40;;;;;;;;;;;;;;;;;;5113841;28;19957;-74
2023/03/13 12:56:06;;;;;;;;;;;;;;;;;;5113484;28;19967;-74
2023/03/13 12:58:33;;;;;;;;;;;;;;;;;;5115527;28;19951;-73
2023/03/13 13:00:59;;;;;;;;;;;;;;;;;;5117193;28;19985;-73
2023/03/13 13:03:25;;;;;;;;;;;;;;;;;;5117147;28;20321;-76
2023/03/13 13:05:51;;;;;;;;;;;;;;;;;;5117091;28;20046;-74
2023/03/13 13:08:17;;;;;;;;;;;;;;;;;;5117370;28;19959;-76
2023/03/13 13:10:42;;;;;;;;;;;;;;;;;;5117017;28;20109;-71
2023/03/13 13:13:08;;;;;;;;;;;;;;;;;;5114245;28;19957;-72
2023/03/13 13:15:34;;;;;;;;;;;;;;;;;;5115980;28;20001;-72
2023/03/13 13:18:00;;;;;;;;;;;;;;;;;;5116847;28;19950;-72
2023/03/13 13:20:27;;;;;;;;;;;;;;;;;;5116976;28;19987;-69
2023/03/13 13:22:53;;;;;;;;;;;;;;;;;;5117045;28;20037;-69
2023/03/13 13:25:18;;;;;;;;;;;;;;;;;;5098427;28;20044;-70
2023/03/13 13:27:44;;;;;;;;;;;;;;;;;;5116946;28;19995;-69
2023/03/13 13:30:10;;;;;;;;;;;;;;;;;;5116750;28;20410;-71
2023/03/13 13:32:37;;;;;;;;;;;;;;;;;;5117170;28;20452;-69
2023/03/13 13:35:05;;;;;;;;;;;;;;;;;;5116927;28;20055;-70
2023/03/13 13:37:31;;;;;;;;;;;;;;;;;;5117400;28;19966;-70
2023/03/13 13:39:57;;;;;;;;;;;;;;;;;;5115121;28;19984;-69
2023/03/13 13:42:23;;;;;;;;;;;;;;;;;;5116756;28;19999;-69
2023/03/13 13:44:49;;;;;;;;;;;;;;;;;;5116664;28;19951;-68
2023/03/13 13:47:14;;;;;;;;;;;;;;;;;;5116304;28;19989;-69
2023/03/13 13:49:40;;;;;;;;;;;;;;;;;;5116832;28;20342;-74
2023/03/13 13:52:07;;;;;;;;;;;;;;;;;;5116475;28;19948;-72
2023/03/13 13:54:33;;;;;;;;;;;;;;;;;;5116483;28;20100;-74
2023/03/13 13:56:59;;;;;;;;;;;;;;;;;;5116366;28;20007;-75
2023/03/13 13:59:25;;;;;;;;;;;;;;;;;;5097861;28;19951;-74
2023/03/13 14:01:51;;;;;;;;;;;;;;;;;;5115391;28;19960;-74
2023/03/13 14:04:17;;;;;;;;;;;;;;;;;;5116675;28;20069;-74
2023/03/13 14:06:43;;;;;;;;;;;;;;;;;;5116704;28;19954;-72
2023/03/13 14:09:09;;;;;;;;;;;;;;;;;;5115975;28;19960;-72
2023/03/13 14:11:35;;;;;;;;;;;;;;;;;;5115084;28;19959;-71
2023/03/13 14:14:01;;;;;;;;;;;;;;;;;;5116016;28;19968;-73
2023/03/13 14:16:26;;;;;;;;;;;;;;;;;;5115679;28;20465;-71
2023/03/13 14:18:52;;;;;;;;;;;;;;;;;;5115695;28;19951;-69
2023/03/13 14:21:18;;;;;;;;;;;;;;;;;;5115930;28;19992;-70
2023/03/13 14:23:44;;;;;;;;;;;;;;;;;;5114579;28;19970;-69
2023/03/13 14:26:10;;;;;;;;;;;;;;;;;;5114612;28;20325;-70
2023/03/13 14:28:36;;;;;;;;;;;;;;;;;;5114326;28;19960;-70
2023/03/13 14:31:02;;;;;;;;;;;;;;;;;;5115816;28;20295;-71
2023/03/13 14:33:28;;;;;;;;;;;;;;;;;;5114291;28;19966;-69
2023/03/13 14:35:56;;;;;;;;;;;;;;;;;;5115266;28;19969;-73
2023/03/13 14:38:22;;;;;;;;;;;;;;;;;;5114286;28;20480;-70
2023/03/13 14:40:48;;;;;;;;;;;;;;;;;;5115295;28;19989;-71
2023/03/13 14:43:14;;;;;;;;;;;;;;;;;;5115224;28;20041;-73
2023/03/13 14:45:39;;;;;;;;;;;;;;;;;;5115110;28;19952;-71
2023/03/13 14:48:05;;;;;;;;;;;;;;;;;;5115419;28;20003;-73
2023/03/13 14:50:31;;;;;;;;;;;;;;;;;;5115372;28;19953;-68
2023/03/13 14:52:57;;;;;;;;;;;;;;;;;;5113905;28;20432;-70
2023/03/13 14:55:23;;;;;;;;;;;;;;;;;;5113849;28;19966;-70
2023/03/13 14:57:49;;;;;;;;;;;;;;;;;;5115272;28;19950;-68
2023/03/13 15:00:15;;;;;;;;;;;;;;;;;;5115492;28;20424;-74
2023/03/13 15:02:42;;;;;;;;;;;;;;;;;;5115239;28;19950;-70
2023/03/13 15:05:09;;;;;;;;;;;;;;;;;;5114836;28;19958;-65
2023/03/13 15:07:36;;;;;;;;;;;;;;;;;;5114197;28;19958;-69
2023/03/13 15:10:02;;;;;;;;;;;;;;;;;;5095393;28;20434;-69
2023/03/13 15:12:28;;;;;;;;;;;;;;;;;;5114287;28;19960;-66
2023/03/13 15:14:53;;;;;;;;;;;;;;;;;;5114530;28;20416;-66
2023/03/13 15:17:19;;;;;;;;;;;;;;;;;;5112610;28;19983;-69
2023/03/13 15:19:45;;;;;;;;;;;;;;;;;;5114503;28;20039;-66
2023/03/13 15:22:11;;;;;;;;;;;;;;;;;;5114008;28;19997;-67
2023/03/13 15:24:37;;;;;;;;;;;;;;;;;;5115088;28;19954;-69
2023/03/13 15:27:03;;;;;;;;;;;;;;;;;;5114536;28;19934;-65
2023/03/13 15:29:29;;;;;;;;;;;;;;;;;;5114726;28;19960;-65
2023/03/13 15:31:55;;;;;;;;;;;;;;;;;;5096175;28;19956;-69
2023/03/13 15:34:24;;;;;;;;;;;;;;;;;;5114440;28;19952;-72
2023/03/13 15:36:50;;;;;;;;;;;;;;;;;;5114297;28;20340;-68
2023/03/13 15:39:18;;;;;;;;;;;;;;;;;;5115188;28;19951;-64
2023/03/13 15:41:44;;;;;;;;;;;;;;;;;;5112554;28;19990;-67
2023/03/13 15:44:09;;;;;;;;;;;;;;;;;;5114533;28;19969;-65
2023/03/13 15:46:35;;;;;;;;;;;;;;;;;;5113255;28;19960;-68
2023/03/13 15:49:02;;;;;;;;;;;;;;;;;;5113206;28;19959;-68
2023/03/13 15:51:28;;;;;;;;;;;;;;;;;;5113116;28;19989;-65
2023/03/13 15:53:54;;;;;;;;;;;;;;;;;;5113294;28;19956;-67
2023/03/13 15:56:21;;;;;;;;;;;;;;;;;;5112671;28;20489;-68
2023/03/13 15:58:47;;;;;;;;;;;;;;;;;;5112227;28;19966;-66
2023/03/13 16:01:13;;;;;;;;;;;;;;;;;;5111930;28;19955;-66
2023/03/13 16:03:39;;;;;;;;;;;;;;;;;;5113190;28;20005;-67
2023/03/13 16:06:05;;;;;;;;;;;;;;;;;;5110097;28;19966;-69
2023/03/13 16:08:31;;;;;;;;;;;;;;;;;;5111429;28;20041;-65
2023/03/13 16:10:56;;;;;;;;;;;;;;;;;;5112077;28;19959;-65
2023/03/13 16:13:22;;;;;;;;;;;;;;;;;;5099513;28;19969;-71
2023/03/13 16:15:49;;;;;;;;;;;;;;;;;;5091875;28;19970;-67
2023/03/13 16:18:15;;;;;;;;;;;;;;;;;;5092361;28;19949;-69
2023/03/13 16:20:41;;;;;;;;;;;;;;;;;;5092869;28;20032;-69
2023/03/13 16:23:07;;;;;;;;;;;;;;;;;;5092879;28;19952;-68
2023/03/13 16:25:32;;;;;;;;;;;;;;;;;;5092943;28;19951;-68
2023/03/13 16:27:58;;;;;;;;;;;;;;;;;;5092841;28;19950;-66
2023/03/13 16:30:24;;;;;;;;;;;;;;;;;;5103476;28;20702;-68
2023/03/13 16:32:50;;;;;;;;;;;;;;;;;;5116635;28;19951;-70
2023/03/13 16:35:16;;;;;;;;;;;;;;;;;;5117696;28;20320;-67
2023/03/13 16:37:42;;;;;;;;;;;;;;;;;;5117673;28;19956;-64